sensor_id;sensor_type;location;lat;lon;timestamp;P1;durP1;ratioP1;P2;durP2;ratioP2
39880;SDS011;25554;44.954;10.068;2023-01-28T00:00:08;23.67;;;10.77;;
39880;SDS011;25554;44.954;10.068;2023-01-28T00:02:34;20.58;;;9.88;;
39880;SDS011;25554;44.954;10.068;2023-01-28T00:05:01;21.42;;;10.15;;
39880;SDS011;25554;44.954;10.068;2023-01-28T00:07:28;24.30;;;10.25;;
39880;SDS011;25554;44.954;10.068;2023-01-28T00:09:54;21.50;;;9.93;;
39880;SDS011;25554;44.954;10.068;2023-01-28T00:12:21;21.95;;;10.35;;
39880;SDS011;25554;44.954;10.068;2023-01-28T00:14:48;23.55;;;11.02;;
39880;SDS011;25554;44.954;10.068;2023-01-28T00:17:14;17.50;;;9.10;;
39880;SDS011;25554;44.954;10.068;2023-01-28T00:19:41;19.95;;;9.88;;
39880;SDS011;25554;44.954;10.068;2023-01-28T00:22:09;17.15;;;9.60;;
39880;SDS011;25554;44.954;10.068;2023-01-28T00:24:35;19.60;;;9.32;;
39880;SDS011;25554;44.954;10.068;2023-01-28T00:27:02;17.05;;;8.70;;
39880;SDS011;25554;44.954;10.068;2023-01-28T00:29:28;18.40;;;8.48;;
39880;SDS011;25554;44.954;10.068;2023-01-28T00:31:55;18.35;;;9.45;;
39880;SDS011;25554;44.954;10.068;2023-01-28T00:34:22;15.60;;;8.93;;
39880;SDS011;25554;44.954;10.068;2023-01-28T00:36:48;18.70;;;9.15;;
39880;SDS011;25554;44.954;10.068;2023-01-28T00:39:22;17.58;;;8.65;;
39880;SDS011;25554;44.954;10.068;2023-01-28T00:41:50;17.75;;;9.40;;
39880;SDS011;25554;44.954;10.068;2023-01-28T00:44:17;18.25;;;8.75;;
39880;SDS011;25554;44.954;10.068;2023-01-28T00:46:43;16.92;;;9.60;;
39880;SDS011;25554;44.954;10.068;2023-01-28T00:49:10;17.85;;;9.32;;
39880;SDS011;25554;44.954;10.068;2023-01-28T00:51:36;17.90;;;9.32;;
39880;SDS011;25554;44.954;10.068;2023-01-28T00:54:03;22.38;;;9.85;;
39880;SDS011;25554;44.954;10.068;2023-01-28T00:56:30;15.65;;;9.07;;
39880;SDS011;25554;44.954;10.068;2023-01-28T00:58:57;19.63;;;9.30;;
39880;SDS011;25554;44.954;10.068;2023-01-28T01:01:24;20.95;;;10.18;;
39880;SDS011;25554;44.954;10.068;2023-01-28T01:03:52;20.60;;;9.75;;
39880;SDS011;25554;44.954;10.068;2023-01-28T01:06:30;17.90;;;9.07;;
39880;SDS011;25554;44.954;10.068;2023-01-28T01:08:58;22.95;;;10.48;;
39880;SDS011;25554;44.954;10.068;2023-01-28T01:13:52;19.70;;;9.63;;
39880;SDS011;25554;44.954;10.068;2023-01-28T01:16:20;17.45;;;9.60;;
39880;SDS011;25554;44.954;10.068;2023-01-28T01:18:47;16.50;;;8.35;;
39880;SDS011;25554;44.954;10.068;2023-01-28T01:21:17;18.20;;;9.20;;
39880;SDS011;25554;44.954;10.068;2023-01-28T01:23:44;18.95;;;9.45;;
39880;SDS011;25554;44.954;10.068;2023-01-28T01:26:11;17.98;;;9.18;;
39880;SDS011;25554;44.954;10.068;2023-01-28T01:28:38;18.00;;;8.73;;
39880;SDS011;25554;44.954;10.068;2023-01-28T01:31:12;19.17;;;9.35;;
39880;SDS011;25554;44.954;10.068;2023-01-28T01:33:40;17.13;;;9.38;;
39880;SDS011;25554;44.954;10.068;2023-01-28T01:36:07;21.10;;;9.98;;
39880;SDS011;25554;44.954;10.068;2023-01-28T01:38:34;16.05;;;9.52;;
39880;SDS011;25554;44.954;10.068;2023-01-28T01:41:01;19.02;;;9.93;;
39880;SDS011;25554;44.954;10.068;2023-01-28T01:47:01;22.25;;;10.80;;
39880;SDS011;25554;44.954;10.068;2023-01-28T01:49:07;17.60;;;8.73;;
39880;SDS011;25554;44.954;10.068;2023-01-28T01:51:47;20.65;;;9.48;;
39880;SDS011;25554;44.954;10.068;2023-01-28T01:54:15;16.05;;;8.85;;
39880;SDS011;25554;44.954;10.068;2023-01-28T01:56:42;20.92;;;10.07;;
39880;SDS011;25554;44.954;10.068;2023-01-28T01:59:11;16.75;;;9.35;;
39880;SDS011;25554;44.954;10.068;2023-01-28T02:01:38;18.23;;;9.77;;
39880;SDS011;25554;44.954;10.068;2023-01-28T02:04:09;17.23;;;9.35;;
39880;SDS011;25554;44.954;10.068;2023-01-28T02:06:45;17.88;;;10.00;;
39880;SDS011;25554;44.954;10.068;2023-01-28T02:09:24;17.70;;;9.77;;
39880;SDS011;25554;44.954;10.068;2023-01-28T02:11:52;18.42;;;8.82;;
39880;SDS011;25554;44.954;10.068;2023-01-28T02:15:06;17.33;;;9.57;;
39880;SDS011;25554;44.954;10.068;2023-01-28T02:17:35;15.45;;;8.55;;
39880;SDS011;25554;44.954;10.068;2023-01-28T02:20:10;18.75;;;9.60;;
39880;SDS011;25554;44.954;10.068;2023-01-28T02:25:32;18.95;;;10.02;;
39880;SDS011;25554;44.954;10.068;2023-01-28T02:32:03;20.02;;;9.75;;
39880;SDS011;25554;44.954;10.068;2023-01-28T02:34:18;17.05;;;9.65;;
39880;SDS011;25554;44.954;10.068;2023-01-28T02:39:17;16.15;;;8.95;;
39880;SDS011;25554;44.954;10.068;2023-01-28T02:41:51;18.42;;;9.95;;
39880;SDS011;25554;44.954;10.068;2023-01-28T02:44:22;18.05;;;9.35;;
39880;SDS011;25554;44.954;10.068;2023-01-28T02:46:51;23.65;;;10.02;;
39880;SDS011;25554;44.954;10.068;2023-01-28T02:57:36;20.17;;;9.00;;
39880;SDS011;25554;44.954;10.068;2023-01-28T03:00:11;18.63;;;9.45;;
39880;SDS011;25554;44.954;10.068;2023-01-28T03:05:39;17.92;;;10.13;;
39880;SDS011;25554;44.954;10.068;2023-01-28T03:11:38;17.83;;;9.18;;
39880;SDS011;25554;44.954;10.068;2023-01-28T03:14:26;17.35;;;9.40;;
39880;SDS011;25554;44.954;10.068;2023-01-28T03:17:15;21.70;;;10.88;;
39880;SDS011;25554;44.954;10.068;2023-01-28T03:20:07;17.63;;;9.20;;
39880;SDS011;25554;44.954;10.068;2023-01-28T03:22:55;17.08;;;9.10;;
39880;SDS011;25554;44.954;10.068;2023-01-28T03:25:43;19.77;;;9.55;;
39880;SDS011;25554;44.954;10.068;2023-01-28T03:28:31;20.55;;;10.48;;
39880;SDS011;25554;44.954;10.068;2023-01-28T03:31:18;18.00;;;9.88;;
39880;SDS011;25554;44.954;10.068;2023-01-28T03:34:04;19.00;;;10.37;;
39880;SDS011;25554;44.954;10.068;2023-01-28T03:36:50;18.30;;;9.85;;
39880;SDS011;25554;44.954;10.068;2023-01-28T03:39:38;19.02;;;10.00;;
39880;SDS011;25554;44.954;10.068;2023-01-28T03:42:11;20.10;;;10.32;;
39880;SDS011;25554;44.954;10.068;2023-01-28T03:45:02;21.45;;;10.77;;
39880;SDS011;25554;44.954;10.068;2023-01-28T03:47:31;22.17;;;10.75;;
39880;SDS011;25554;44.954;10.068;2023-01-28T03:50:00;20.10;;;10.27;;
39880;SDS011;25554;44.954;10.068;2023-01-28T03:52:31;20.20;;;10.43;;
39880;SDS011;25554;44.954;10.068;2023-01-28T03:55:17;19.17;;;10.15;;
39880;SDS011;25554;44.954;10.068;2023-01-28T03:57:45;20.25;;;10.25;;
39880;SDS011;25554;44.954;10.068;2023-01-28T04:00:12;17.88;;;10.23;;
39880;SDS011;25554;44.954;10.068;2023-01-28T04:02:41;24.52;;;11.07;;
39880;SDS011;25554;44.954;10.068;2023-01-28T04:05:11;20.70;;;10.15;;
39880;SDS011;25554;44.954;10.068;2023-01-28T04:07:45;20.20;;;11.10;;
39880;SDS011;25554;44.954;10.068;2023-01-28T04:10:19;21.15;;;11.23;;
39880;SDS011;25554;44.954;10.068;2023-01-28T04:12:53;22.52;;;11.95;;
39880;SDS011;25554;44.954;10.068;2023-01-28T04:15:21;21.00;;;10.88;;
39880;SDS011;25554;44.954;10.068;2023-01-28T04:17:48;20.92;;;11.30;;
39880;SDS011;25554;44.954;10.068;2023-01-28T04:20:23;19.98;;;10.18;;
39880;SDS011;25554;44.954;10.068;2023-01-28T04:22:50;16.98;;;9.77;;
39880;SDS011;25554;44.954;10.068;2023-01-28T04:25:18;23.35;;;10.57;;
39880;SDS011;25554;44.954;10.068;2023-01-28T04:27:44;21.13;;;10.88;;
39880;SDS011;25554;44.954;10.068;2023-01-28T04:30:18;21.15;;;11.32;;
39880;SDS011;25554;44.954;10.068;2023-01-28T04:32:55;20.00;;;9.90;;
39880;SDS011;25554;44.954;10.068;2023-01-28T04:35:44;20.70;;;11.45;;
39880;SDS011;25554;44.954;10.068;2023-01-28T04:38:30;19.58;;;10.90;;
39880;SDS011;25554;44.954;10.068;2023-01-28T04:41:21;20.10;;;10.45;;
39880;SDS011;25554;44.954;10.068;2023-01-28T04:43:47;22.77;;;10.95;;
39880;SDS011;25554;44.954;10.068;2023-01-28T04:46:33;20.48;;;10.65;;
39880;SDS011;25554;44.954;10.068;2023-01-28T04:49:13;21.88;;;10.68;;
39880;SDS011;25554;44.954;10.068;2023-01-28T04:51:42;21.05;;;10.52;;
39880;SDS011;25554;44.954;10.068;2023-01-28T04:54:27;20.60;;;10.63;;
39880;SDS011;25554;44.954;10.068;2023-01-28T04:56:57;24.15;;;11.48;;
39880;SDS011;25554;44.954;10.068;2023-01-28T04:59:24;22.42;;;11.38;;
39880;SDS011;25554;44.954;10.068;2023-01-28T05:01:51;22.77;;;12.05;;
39880;SDS011;25554;44.954;10.068;2023-01-28T05:04:18;21.40;;;11.27;;
39880;SDS011;25554;44.954;10.068;2023-01-28T05:06:45;19.88;;;11.23;;
39880;SDS011;25554;44.954;10.068;2023-01-28T05:11:50;21.80;;;10.27;;
39880;SDS011;25554;44.954;10.068;2023-01-28T05:14:17;18.35;;;10.55;;
39880;SDS011;25554;44.954;10.068;2023-01-28T05:16:48;22.55;;;11.27;;
39880;SDS011;25554;44.954;10.068;2023-01-28T05:19:16;25.05;;;11.43;;
39880;SDS011;25554;44.954;10.068;2023-01-28T05:21:45;21.70;;;11.70;;
39880;SDS011;25554;44.954;10.068;2023-01-28T05:24:24;23.75;;;11.80;;
39880;SDS011;25554;44.954;10.068;2023-01-28T05:26:52;24.55;;;12.07;;
39880;SDS011;25554;44.954;10.068;2023-01-28T05:29:18;26.52;;;12.77;;
39880;SDS011;25554;44.954;10.068;2023-01-28T05:31:46;26.08;;;12.82;;
39880;SDS011;25554;44.954;10.068;2023-01-28T05:34:13;25.58;;;12.75;;
39880;SDS011;25554;44.954;10.068;2023-01-28T05:36:39;23.42;;;11.80;;
39880;SDS011;25554;44.954;10.068;2023-01-28T05:39:21;25.25;;;12.98;;
39880;SDS011;25554;44.954;10.068;2023-01-28T05:41:48;24.45;;;11.55;;
39880;SDS011;25554;44.954;10.068;2023-01-28T05:44:14;24.20;;;12.27;;
39880;SDS011;25554;44.954;10.068;2023-01-28T05:47:13;23.05;;;12.30;;
39880;SDS011;25554;44.954;10.068;2023-01-28T05:50:02;26.13;;;11.98;;
39880;SDS011;25554;44.954;10.068;2023-01-28T05:52:47;21.88;;;12.63;;
39880;SDS011;25554;44.954;10.068;2023-01-28T05:55:25;20.65;;;11.77;;
39880;SDS011;25554;44.954;10.068;2023-01-28T05:57:52;22.15;;;11.48;;
39880;SDS011;25554;44.954;10.068;2023-01-28T06:00:22;25.00;;;12.52;;
39880;SDS011;25554;44.954;10.068;2023-01-28T06:02:49;24.40;;;13.30;;
39880;SDS011;25554;44.954;10.068;2023-01-28T06:05:16;23.15;;;12.38;;
39880;SDS011;25554;44.954;10.068;2023-01-28T06:07:43;26.27;;;13.40;;
39880;SDS011;25554;44.954;10.068;2023-01-28T06:10:10;30.35;;;13.35;;
39880;SDS011;25554;44.954;10.068;2023-01-28T06:12:38;28.83;;;14.00;;
39880;SDS011;25554;44.954;10.068;2023-01-28T06:15:27;26.98;;;13.02;;
39880;SDS011;25554;44.954;10.068;2023-01-28T06:18:00;27.50;;;12.77;;
39880;SDS011;25554;44.954;10.068;2023-01-28T06:20:30;32.42;;;14.05;;
39880;SDS011;25554;44.954;10.068;2023-01-28T06:22:58;23.33;;;12.57;;
39880;SDS011;25554;44.954;10.068;2023-01-28T06:25:25;27.30;;;12.23;;
39880;SDS011;25554;44.954;10.068;2023-01-28T06:27:52;22.63;;;12.93;;
39880;SDS011;25554;44.954;10.068;2023-01-28T06:30:19;24.73;;;12.82;;
39880;SDS011;25554;44.954;10.068;2023-01-28T06:32:46;27.35;;;13.18;;
39880;SDS011;25554;44.954;10.068;2023-01-28T06:35:12;27.10;;;12.80;;
39880;SDS011;25554;44.954;10.068;2023-01-28T06:37:39;22.77;;;12.13;;
39880;SDS011;25554;44.954;10.068;2023-01-28T06:40:06;29.55;;;12.55;;
39880;SDS011;25554;44.954;10.068;2023-01-28T06:42:33;26.13;;;14.05;;
39880;SDS011;25554;44.954;10.068;2023-01-28T06:45:00;22.10;;;12.95;;
39880;SDS011;25554;44.954;10.068;2023-01-28T06:47:26;26.23;;;12.57;;
39880;SDS011;25554;44.954;10.068;2023-01-28T06:49:53;22.30;;;12.18;;
39880;SDS011;25554;44.954;10.068;2023-01-28T06:52:19;23.33;;;11.95;;
39880;SDS011;25554;44.954;10.068;2023-01-28T06:54:46;21.98;;;11.68;;
39880;SDS011;25554;44.954;10.068;2023-01-28T06:57:13;22.83;;;12.02;;
39880;SDS011;25554;44.954;10.068;2023-01-28T06:59:39;25.42;;;11.82;;
39880;SDS011;25554;44.954;10.068;2023-01-28T07:02:06;20.60;;;11.57;;
39880;SDS011;25554;44.954;10.068;2023-01-28T07:04:32;24.55;;;12.15;;
39880;SDS011;25554;44.954;10.068;2023-01-28T07:06:59;27.92;;;12.77;;
39880;SDS011;25554;44.954;10.068;2023-01-28T07:09:25;23.45;;;13.63;;
39880;SDS011;25554;44.954;10.068;2023-01-28T07:11:52;26.88;;;13.63;;
39880;SDS011;25554;44.954;10.068;2023-01-28T07:14:18;26.05;;;13.60;;
39880;SDS011;25554;44.954;10.068;2023-01-28T07:16:45;23.77;;;13.43;;
39880;SDS011;25554;44.954;10.068;2023-01-28T07:19:11;30.88;;;15.20;;
39880;SDS011;25554;44.954;10.068;2023-01-28T07:21:38;24.63;;;13.02;;
39880;SDS011;25554;44.954;10.068;2023-01-28T07:24:04;30.27;;;13.75;;
39880;SDS011;25554;44.954;10.068;2023-01-28T07:26:31;26.70;;;14.25;;
39880;SDS011;25554;44.954;10.068;2023-01-28T07:28:58;24.15;;;13.30;;
39880;SDS011;25554;44.954;10.068;2023-01-28T07:31:24;25.70;;;13.40;;
39880;SDS011;25554;44.954;10.068;2023-01-28T07:33:51;22.52;;;13.27;;
39880;SDS011;25554;44.954;10.068;2023-01-28T07:36:17;24.27;;;12.38;;
39880;SDS011;25554;44.954;10.068;2023-01-28T07:38:44;23.88;;;11.82;;
39880;SDS011;25554;44.954;10.068;2023-01-28T07:41:10;21.00;;;11.27;;
39880;SDS011;25554;44.954;10.068;2023-01-28T07:43:37;26.05;;;13.32;;
39880;SDS011;25554;44.954;10.068;2023-01-28T07:46:04;26.42;;;13.43;;
39880;SDS011;25554;44.954;10.068;2023-01-28T07:48:30;26.73;;;12.35;;
39880;SDS011;25554;44.954;10.068;2023-01-28T07:50:57;23.85;;;12.48;;
39880;SDS011;25554;44.954;10.068;2023-01-28T07:53:24;23.65;;;12.35;;
39880;SDS011;25554;44.954;10.068;2023-01-28T07:55:51;27.98;;;13.27;;
39880;SDS011;25554;44.954;10.068;2023-01-28T07:58:17;23.90;;;12.13;;
39880;SDS011;25554;44.954;10.068;2023-01-28T08:00:44;24.33;;;13.05;;
39880;SDS011;25554;44.954;10.068;2023-01-28T08:03:12;23.05;;;11.57;;
39880;SDS011;25554;44.954;10.068;2023-01-28T08:05:46;21.15;;;11.90;;
39880;SDS011;25554;44.954;10.068;2023-01-28T08:08:14;20.42;;;11.27;;
39880;SDS011;25554;44.954;10.068;2023-01-28T08:10:41;27.25;;;12.05;;
39880;SDS011;25554;44.954;10.068;2023-01-28T08:13:09;24.60;;;13.50;;
39880;SDS011;25554;44.954;10.068;2023-01-28T08:15:35;26.67;;;13.70;;
39880;SDS011;25554;44.954;10.068;2023-01-28T08:18:03;26.77;;;14.18;;
39880;SDS011;25554;44.954;10.068;2023-01-28T08:20:32;23.13;;;12.95;;
39880;SDS011;25554;44.954;10.068;2023-01-28T08:25:37;26.52;;;12.50;;
39880;SDS011;25554;44.954;10.068;2023-01-28T08:28:03;23.77;;;12.77;;
39880;SDS011;25554;44.954;10.068;2023-01-28T08:30:31;27.88;;;13.48;;
39880;SDS011;25554;44.954;10.068;2023-01-28T08:32:58;25.23;;;13.52;;
39880;SDS011;25554;44.954;10.068;2023-01-28T08:35:25;26.70;;;13.00;;
39880;SDS011;25554;44.954;10.068;2023-01-28T08:37:52;27.77;;;13.20;;
39880;SDS011;25554;44.954;10.068;2023-01-28T08:40:19;28.42;;;14.48;;
39880;SDS011;25554;44.954;10.068;2023-01-28T08:42:49;27.02;;;14.13;;
39880;SDS011;25554;44.954;10.068;2023-01-28T08:45:17;24.65;;;14.43;;
39880;SDS011;25554;44.954;10.068;2023-01-28T08:47:51;25.70;;;13.48;;
39880;SDS011;25554;44.954;10.068;2023-01-28T08:50:23;25.20;;;13.77;;
39880;SDS011;25554;44.954;10.068;2023-01-28T08:52:58;28.20;;;14.55;;
39880;SDS011;25554;44.954;10.068;2023-01-28T08:55:26;24.15;;;13.40;;
39880;SDS011;25554;44.954;10.068;2023-01-28T08:57:52;29.33;;;16.38;;
39880;SDS011;25554;44.954;10.068;2023-01-28T09:00:19;30.27;;;15.43;;
39880;SDS011;25554;44.954;10.068;2023-01-28T09:02:46;30.60;;;15.85;;
39880;SDS011;25554;44.954;10.068;2023-01-28T09:05:16;29.23;;;15.32;;
39880;SDS011;25554;44.954;10.068;2023-01-28T09:07:42;30.63;;;16.08;;
39880;SDS011;25554;44.954;10.068;2023-01-28T09:10:09;31.00;;;15.68;;
39880;SDS011;25554;44.954;10.068;2023-01-28T09:12:36;26.27;;;15.40;;
39880;SDS011;25554;44.954;10.068;2023-01-28T09:15:03;27.42;;;15.18;;
39880;SDS011;25554;44.954;10.068;2023-01-28T09:17:30;33.30;;;16.42;;
39880;SDS011;25554;44.954;10.068;2023-01-28T09:19:57;30.00;;;16.33;;
39880;SDS011;25554;44.954;10.068;2023-01-28T09:22:23;27.38;;;16.38;;
39880;SDS011;25554;44.954;10.068;2023-01-28T09:24:50;29.60;;;15.65;;
39880;SDS011;25554;44.954;10.068;2023-01-28T09:27:16;29.63;;;16.25;;
39880;SDS011;25554;44.954;10.068;2023-01-28T09:29:43;32.05;;;16.15;;
39880;SDS011;25554;44.954;10.068;2023-01-28T09:32:09;30.88;;;16.85;;
39880;SDS011;25554;44.954;10.068;2023-01-28T09:34:36;33.08;;;17.05;;
39880;SDS011;25554;44.954;10.068;2023-01-28T09:37:03;34.78;;;18.25;;
39880;SDS011;25554;44.954;10.068;2023-01-28T09:39:29;36.08;;;18.15;;
39880;SDS011;25554;44.954;10.068;2023-01-28T09:44:27;35.53;;;19.10;;
39880;SDS011;25554;44.954;10.068;2023-01-28T09:47:08;31.83;;;17.08;;
39880;SDS011;25554;44.954;10.068;2023-01-28T09:49:47;33.15;;;17.83;;
39880;SDS011;25554;44.954;10.068;2023-01-28T09:52:18;30.98;;;17.70;;
39880;SDS011;25554;44.954;10.068;2023-01-28T09:54:51;33.33;;;17.75;;
39880;SDS011;25554;44.954;10.068;2023-01-28T09:57:30;35.85;;;18.88;;
39880;SDS011;25554;44.954;10.068;2023-01-28T10:00:13;34.92;;;18.88;;
39880;SDS011;25554;44.954;10.068;2023-01-28T10:05:23;33.67;;;17.98;;
39880;SDS011;25554;44.954;10.068;2023-01-28T10:08:42;31.60;;;16.73;;
39880;SDS011;25554;44.954;10.068;2023-01-28T10:17:27;31.92;;;17.65;;
39880;SDS011;25554;44.954;10.068;2023-01-28T10:20:02;31.50;;;17.95;;
39880;SDS011;25554;44.954;10.068;2023-01-28T10:25:13;28.98;;;17.92;;
39880;SDS011;25554;44.954;10.068;2023-01-28T10:27:45;32.63;;;17.77;;
39880;SDS011;25554;44.954;10.068;2023-01-28T10:35:14;31.23;;;17.00;;
39880;SDS011;25554;44.954;10.068;2023-01-28T10:37:41;30.73;;;17.27;;
39880;SDS011;25554;44.954;10.068;2023-01-28T10:40:11;34.88;;;18.75;;
39880;SDS011;25554;44.954;10.068;2023-01-28T10:42:42;34.45;;;18.77;;
39880;SDS011;25554;44.954;10.068;2023-01-28T10:45:29;34.60;;;18.77;;
39880;SDS011;25554;44.954;10.068;2023-01-28T10:50:49;32.30;;;17.23;;
39880;SDS011;25554;44.954;10.068;2023-01-28T10:53:17;33.25;;;18.40;;
39880;SDS011;25554;44.954;10.068;2023-01-28T10:55:55;33.05;;;19.15;;
39880;SDS011;25554;44.954;10.068;2023-01-28T10:58:26;33.38;;;19.27;;
39880;SDS011;25554;44.954;10.068;2023-01-28T11:00:55;31.38;;;17.20;;
39880;SDS011;25554;44.954;10.068;2023-01-28T11:03:25;36.28;;;18.95;;
39880;SDS011;25554;44.954;10.068;2023-01-28T11:05:53;32.15;;;18.85;;
39880;SDS011;25554;44.954;10.068;2023-01-28T11:08:20;34.72;;;18.40;;
39880;SDS011;25554;44.954;10.068;2023-01-28T11:10:48;38.75;;;19.77;;
39880;SDS011;25554;44.954;10.068;2023-01-28T11:15:47;31.17;;;18.08;;
39880;SDS011;25554;44.954;10.068;2023-01-28T11:18:18;29.52;;;17.25;;
39880;SDS011;25554;44.954;10.068;2023-01-28T11:20:52;31.17;;;17.40;;
39880;SDS011;25554;44.954;10.068;2023-01-28T11:23:29;29.70;;;16.95;;
39880;SDS011;25554;44.954;10.068;2023-01-28T11:26:04;34.22;;;17.75;;
39880;SDS011;25554;44.954;10.068;2023-01-28T11:28:32;35.78;;;18.92;;
39880;SDS011;25554;44.954;10.068;2023-01-28T11:31:00;32.05;;;18.13;;
39880;SDS011;25554;44.954;10.068;2023-01-28T11:33:32;33.42;;;19.65;;
39880;SDS011;25554;44.954;10.068;2023-01-28T11:36:06;33.97;;;17.83;;
39880;SDS011;25554;44.954;10.068;2023-01-28T11:38:47;32.85;;;17.33;;
39880;SDS011;25554;44.954;10.068;2023-01-28T11:41:29;31.10;;;16.88;;
39880;SDS011;25554;44.954;10.068;2023-01-28T11:43:58;34.03;;;17.80;;
39880;SDS011;25554;44.954;10.068;2023-01-28T11:49:22;31.30;;;17.65;;
39880;SDS011;25554;44.954;10.068;2023-01-28T11:52:01;30.42;;;16.75;;
39880;SDS011;25554;44.954;10.068;2023-01-28T12:14:19;31.83;;;17.00;;
39880;SDS011;25554;44.954;10.068;2023-01-28T12:19:52;29.20;;;17.38;;
39880;SDS011;25554;44.954;10.068;2023-01-28T12:38:13;28.80;;;14.57;;
39880;SDS011;25554;44.954;10.068;2023-01-28T12:41:00;27.52;;;15.80;;
39880;SDS011;25554;44.954;10.068;2023-01-28T12:44:18;29.48;;;16.15;;
39880;SDS011;25554;44.954;10.068;2023-01-28T12:47:00;27.88;;;16.17;;
39880;SDS011;25554;44.954;10.068;2023-01-28T12:49:34;27.80;;;15.23;;
39880;SDS011;25554;44.954;10.068;2023-01-28T12:54:45;28.02;;;16.35;;
39880;SDS011;25554;44.954;10.068;2023-01-28T12:57:23;26.73;;;15.63;;
39880;SDS011;25554;44.954;10.068;2023-01-28T12:59:55;26.05;;;14.75;;
39880;SDS011;25554;44.954;10.068;2023-01-28T13:02:37;33.78;;;16.05;;
39880;SDS011;25554;44.954;10.068;2023-01-28T13:05:09;29.00;;;15.25;;
39880;SDS011;25554;44.954;10.068;2023-01-28T13:07:46;29.27;;;16.08;;
39880;SDS011;25554;44.954;10.068;2023-01-28T13:10:28;28.40;;;15.35;;
39880;SDS011;25554;44.954;10.068;2023-01-28T13:13:01;30.52;;;15.85;;
39880;SDS011;25554;44.954;10.068;2023-01-28T13:15:30;28.40;;;15.77;;
39880;SDS011;25554;44.954;10.068;2023-01-28T13:17:58;29.40;;;16.00;;
39880;SDS011;25554;44.954;10.068;2023-01-28T13:20:30;29.35;;;15.70;;
39880;SDS011;25554;44.954;10.068;2023-01-28T13:23:46;28.48;;;15.52;;
39880;SDS011;25554;44.954;10.068;2023-01-28T13:28:45;30.60;;;14.85;;
39880;SDS011;25554;44.954;10.068;2023-01-28T13:31:17;26.30;;;15.57;;
39880;SDS011;25554;44.954;10.068;2023-01-28T13:33:59;23.80;;;14.48;;
39880;SDS011;25554;44.954;10.068;2023-01-28T13:36:31;27.45;;;14.80;;
39880;SDS011;25554;44.954;10.068;2023-01-28T13:44:45;26.00;;;15.25;;
39880;SDS011;25554;44.954;10.068;2023-01-28T13:47:26;27.92;;;16.10;;
39880;SDS011;25554;44.954;10.068;2023-01-28T13:50:19;26.92;;;15.18;;
39880;SDS011;25554;44.954;10.068;2023-01-28T13:52:54;27.70;;;15.55;;
39880;SDS011;25554;44.954;10.068;2023-01-28T13:55:25;25.05;;;14.27;;
39880;SDS011;25554;44.954;10.068;2023-01-28T14:09:30;24.27;;;14.48;;
39880;SDS011;25554;44.954;10.068;2023-01-28T14:19:57;24.25;;;14.85;;
39880;SDS011;25554;44.954;10.068;2023-01-28T14:22:25;26.00;;;14.30;;
39880;SDS011;25554;44.954;10.068;2023-01-28T14:32:24;27.17;;;14.52;;
39880;SDS011;25554;44.954;10.068;2023-01-28T14:34:53;22.25;;;13.57;;
39880;SDS011;25554;44.954;10.068;2023-01-28T14:37:21;24.85;;;14.68;;
39880;SDS011;25554;44.954;10.068;2023-01-28T14:57:57;23.42;;;13.32;;
39880;SDS011;25554;44.954;10.068;2023-01-28T15:00:30;30.47;;;19.60;;
39880;SDS011;25554;44.954;10.068;2023-01-28T15:02:58;30.42;;;17.08;;
39880;SDS011;25554;44.954;10.068;2023-01-28T15:05:26;23.20;;;14.95;;
39880;SDS011;25554;44.954;10.068;2023-01-28T15:07:54;25.13;;;15.55;;
39880;SDS011;25554;44.954;10.068;2023-01-28T15:10:27;25.33;;;14.75;;
39880;SDS011;25554;44.954;10.068;2023-01-28T15:17:55;31.10;;;14.30;;
39880;SDS011;25554;44.954;10.068;2023-01-28T15:20:25;24.05;;;14.40;;
39880;SDS011;25554;44.954;10.068;2023-01-28T15:22:52;22.65;;;13.93;;
39880;SDS011;25554;44.954;10.068;2023-01-28T15:25:20;25.30;;;14.48;;
39880;SDS011;25554;44.954;10.068;2023-01-28T15:27:49;23.83;;;13.10;;
39880;SDS011;25554;44.954;10.068;2023-01-28T15:30:23;23.30;;;13.32;;
39880;SDS011;25554;44.954;10.068;2023-01-28T15:33:04;23.75;;;14.35;;
39880;SDS011;25554;44.954;10.068;2023-01-28T15:35:44;22.92;;;13.40;;
39880;SDS011;25554;44.954;10.068;2023-01-28T15:38:11;24.38;;;14.05;;
39880;SDS011;25554;44.954;10.068;2023-01-28T15:40:42;25.98;;;14.85;;
39880;SDS011;25554;44.954;10.068;2023-01-28T15:43:15;28.00;;;14.75;;
39880;SDS011;25554;44.954;10.068;2023-01-28T15:45:45;26.50;;;14.20;;
39880;SDS011;25554;44.954;10.068;2023-01-28T15:48:15;26.80;;;15.38;;
39880;SDS011;25554;44.954;10.068;2023-01-28T15:50:42;25.58;;;16.00;;
39880;SDS011;25554;44.954;10.068;2023-01-28T15:53:10;24.55;;;14.57;;
39880;SDS011;25554;44.954;10.068;2023-01-28T15:55:39;29.25;;;15.50;;
39880;SDS011;25554;44.954;10.068;2023-01-28T15:58:16;29.25;;;14.73;;
39880;SDS011;25554;44.954;10.068;2023-01-28T16:00:44;31.92;;;14.85;;
39880;SDS011;25554;44.954;10.068;2023-01-28T16:03:16;26.33;;;13.48;;
39880;SDS011;25554;44.954;10.068;2023-01-28T16:05:52;34.30;;;15.75;;
39880;SDS011;25554;44.954;10.068;2023-01-28T16:08:25;30.70;;;14.85;;
39880;SDS011;25554;44.954;10.068;2023-01-28T16:11:19;31.33;;;17.17;;
39880;SDS011;25554;44.954;10.068;2023-01-28T16:13:56;28.42;;;17.30;;
39880;SDS011;25554;44.954;10.068;2023-01-28T16:16:25;32.53;;;16.58;;
39880;SDS011;25554;44.954;10.068;2023-01-28T16:18:56;28.42;;;17.52;;
39880;SDS011;25554;44.954;10.068;2023-01-28T16:21:24;31.15;;;17.23;;
39880;SDS011;25554;44.954;10.068;2023-01-28T16:23:57;29.85;;;19.25;;
39880;SDS011;25554;44.954;10.068;2023-01-28T16:26:25;28.65;;;15.98;;
39880;SDS011;25554;44.954;10.068;2023-01-28T16:28:53;29.60;;;17.40;;
39880;SDS011;25554;44.954;10.068;2023-01-28T16:33:46;34.38;;;17.85;;
39880;SDS011;25554;44.954;10.068;2023-01-28T16:36:16;31.35;;;18.58;;
39880;SDS011;25554;44.954;10.068;2023-01-28T16:38:45;39.13;;;20.30;;
39880;SDS011;25554;44.954;10.068;2023-01-28T16:43:40;29.33;;;16.88;;
39880;SDS011;25554;44.954;10.068;2023-01-28T16:48:35;28.95;;;16.27;;
39880;SDS011;25554;44.954;10.068;2023-01-28T16:51:02;29.40;;;16.20;;
39880;SDS011;25554;44.954;10.068;2023-01-28T16:53:30;32.28;;;16.92;;
39880;SDS011;25554;44.954;10.068;2023-01-28T16:55:58;37.47;;;18.85;;
39880;SDS011;25554;44.954;10.068;2023-01-28T16:58:25;34.50;;;18.27;;
39880;SDS011;25554;44.954;10.068;2023-01-28T17:00:53;34.72;;;19.73;;
39880;SDS011;25554;44.954;10.068;2023-01-28T17:03:19;39.20;;;21.15;;
39880;SDS011;25554;44.954;10.068;2023-01-28T17:05:46;39.55;;;20.13;;
39880;SDS011;25554;44.954;10.068;2023-01-28T17:08:12;31.02;;;17.30;;
39880;SDS011;25554;44.954;10.068;2023-01-28T17:10:39;31.55;;;15.75;;
39880;SDS011;25554;44.954;10.068;2023-01-28T17:13:06;33.17;;;15.02;;
39880;SDS011;25554;44.954;10.068;2023-01-28T17:15:33;30.40;;;15.80;;
39880;SDS011;25554;44.954;10.068;2023-01-28T17:18:00;32.63;;;15.65;;
39880;SDS011;25554;44.954;10.068;2023-01-28T17:20:27;35.72;;;16.00;;
39880;SDS011;25554;44.954;10.068;2023-01-28T17:22:54;29.65;;;17.15;;